Time;durP1;ratioP1;P1;durP2;ratioP2;P2;SDS_P1;SDS_P2;PMS_P1;PMS_P2;Temp;Humidity;BMP_temperature;BMP_pressure;BME280_temperature;BME280_humidity;BME280_pressure;Samples;Min_cycle;Max_cycle;Signal;HPM_P1;HPM_P2
2022/10/31 00:09:53;;;;;;;28.20;13.65;;;;;;;11.32;75.16;100468.38;30614157;28;113524;-73
2022/10/31 00:24:54;;;;;;;27.13;15.80;;;;;;;11.09;74.81;100465.53;30613761;28;96680;-81
2022/10/31 00:39:54;;;;;;;26.85;15.35;;;;;;;10.76;75.09;100475.38;30610961;28;114808;-84
2022/10/31 00:54:54;;;;;;;27.75;14.15;;;;;;;10.44;75.28;100477.78;30616324;28;117863;-76
2022/10/31 01:09:55;;;;;;;26.95;15.80;;;;;;;10.28;75.77;100483.03;30609560;28;114490;-76
2022/10/31 01:24:55;;;;;;;25.65;15.38;;;;;;;10.13;76.41;100482.81;30608894;28;97409;-80
2022/10/31 01:39:55;;;;;;;24.10;13.07;;;;;;;10.11;77.23;100487.44;30607201;28;109113;-76
2022/10/31 01:55:10;;;;;;;21.02;13.13;;;;;;;10.01;76.66;100484.91;30607293;28;102674;-85
2022/10/31 02:10:11;;;;;;;22.77;13.07;;;;;;;9.89;77.33;100491.50;30618269;28;96679;-70
2022/10/31 02:25:59;;;;;;;30.15;14.57;;;;;;;9.78;77.63;100493.44;30625556;28;96803;-73
2022/10/31 02:41:09;;;;;;;30.23;15.57;;;;;;;9.61;77.25;100497.00;30635930;28;96794;-75
2022/10/31 02:56:18;;;;;;;32.37;14.53;;;;;;;9.51;76.99;100501.59;30622434;28;96647;-81
2022/10/31 03:11:28;;;;;;;25.50;16.00;;;;;;;9.24;77.40;100506.03;30620514;28;97490;-72
2022/10/31 03:26:29;;;;;;;22.27;13.03;;;;;;;9.10;77.63;100515.38;30619555;28;96667;-71
2022/10/31 03:41:36;;;;;;;29.23;13.67;;;;;;;8.90;77.46;100526.19;30615728;28;96741;-70
2022/10/31 03:56:42;;;;;;;28.53;16.00;;;;;;;8.76;77.94;100534.66;30615993;28;96741;-69
2022/10/31 04:11:56;;;;;;;29.13;13.37;;;;;;;8.72;77.81;100536.78;30613547;28;96712;-73
2022/10/31 04:26:57;;;;;;;22.17;12.60;;;;;;;8.65;78.08;100548.97;30612049;28;97003;-70
2022/10/31 04:41:57;;;;;;;23.25;13.15;;;;;;;8.44;78.37;100549.22;30610811;28;97304;-69
2022/10/31 04:56:57;;;;;;;21.50;10.68;;;;;;;8.52;79.19;100564.44;30610257;28;104883;-69
2022/10/31 05:11:58;;;;;;;24.33;13.90;;;;;;;8.24;78.33;100561.72;30608797;28;111145;-67
2022/10/31 05:26:58;;;;;;;24.05;12.15;;;;;;;8.19;78.61;100569.28;30606139;28;96685;-68
2022/10/31 05:41:58;;;;;;;20.48;11.05;;;;;;;8.28;79.32;100573.72;30627392;28;97896;-71
2022/10/31 05:56:59;;;;;;;19.38;10.48;;;;;;;8.18;79.01;100581.72;30624545;28;97433;-67
2022/10/31 06:11:59;;;;;;;24.42;11.15;;;;;;;8.45;78.74;100588.09;30622969;28;98434;-67
2022/10/31 06:26:59;;;;;;;21.40;10.07;;;;;;;9.15;79.56;100593.69;30621233;28;97064;-70
2022/10/31 06:42:00;;;;;;;22.83;11.73;;;;;;;10.26;78.64;100600.34;30617863;28;99869;-69
2022/10/31 06:57:00;;;;;;;23.00;11.60;;;;;;;11.61;77.44;100612.91;30618208;28;96828;-68
2022/10/31 07:12:00;;;;;;;20.23;11.07;;;;;;;13.47;75.87;100634.03;30615538;28;103619;-68
2022/10/31 07:27:01;;;;;;;15.68;7.72;;;;;;;14.83;72.07;100635.91;30608523;28;97209;-70
2022/10/31 07:42:01;;;;;;;15.90;7.55;;;;;;;15.63;68.80;100641.31;30613588;28;114821;-68
2022/10/31 07:57:01;;;;;;;18.20;7.60;;;;;;;17.13;67.09;100655.34;30611876;28;111973;-64
2022/10/31 08:12:02;;;;;;;22.52;7.30;;;;;;;19.04;63.99;100652.13;30610859;28;96929;-70
2022/10/31 08:27:02;;;;;;;13.45;6.90;;;;;;;28.34;50.84;100661.16;30608788;28;96802;-69
2022/10/31 08:42:03;;;;;;;14.20;5.85;;;;;;;35.79;34.10;100668.56;30607905;28;96817;-64
2022/10/31 08:57:03;;;;;;;8.95;4.00;;;;;;;40.99;22.40;100661.22;30609481;28;96800;-67
2022/10/31 09:12:05;;;;;;;9.23;4.57;;;;;;;43.51;17.73;100659.66;30606372;28;97305;-68
2022/10/31 09:27:05;;;;;;;10.88;4.72;;;;;;;45.52;15.25;100667.78;30626828;28;97434;-66
2022/10/31 09:42:33;;;;;;;9.73;3.47;;;;;;;46.60;13.02;100666.94;30622317;28;120336;-67
2022/10/31 09:57:35;;;;;;;10.83;3.67;;;;;;;48.15;12.39;100665.25;30625107;28;97099;-66
2022/10/31 10:12:47;;;;;;;8.60;3.53;;;;;;;47.41;12.38;100663.41;30621333;28;96801;-67
2022/10/31 10:27:59;;;;;;;9.70;3.93;;;;;;;48.92;10.90;100653.53;30621353;28;97086;-67
2022/10/31 10:43:23;;;;;;;11.70;3.57;;;;;;;49.99;10.14;100641.00;30620367;28;96770;-69
2022/10/31 10:58:23;;;;;;;6.83;3.27;;;;;;;51.30;9.91;100631.44;30610693;28;97871;-67
2022/10/31 11:13:24;;;;;;;8.18;3.22;;;;;;;49.96;10.19;100624.88;30608652;28;96740;-67
2022/10/31 11:28:29;;;;;;;9.30;3.83;;;;;;;49.89;9.72;100605.19;30607639;28;97213;-67
2022/10/31 11:43:29;;;;;;;8.47;3.37;;;;;;;51.33;8.88;100595.72;30603782;28;97139;-67
2022/10/31 11:58:29;;;;;;;10.57;3.53;;;;;;;48.44;10.80;100587.47;30605435;28;100639;-66
2022/10/31 12:13:36;;;;;;;10.30;3.63;;;;;;;47.94;10.80;100593.66;30601595;28;96800;-67
2022/10/31 12:28:57;;;;;;;7.43;3.13;;;;;;;49.53;10.19;100580.28;30581351;28;97313;-67
2022/10/31 12:44:40;;;;;;;12.83;3.67;;;;;;;48.37;11.05;100575.47;30605639;28;96891;-66
2022/10/31 13:00:07;;;;;;;9.70;3.60;;;;;;;45.85;12.32;100561.69;30598896;28;97394;-66
2022/10/31 13:15:43;;;;;;;11.07;3.83;;;;;;;46.94;12.28;100546.03;30605980;28;97424;-66
2022/10/31 13:30:43;;;;;;;7.30;3.67;;;;;;;42.19;14.78;100539.13;30603328;28;97542;-66
2022/10/31 13:45:49;;;;;;;13.45;4.05;;;;;;;39.41;16.97;100531.53;30604668;28;97532;-66
2022/10/31 14:01:02;;;;;;;10.83;4.20;;;;;;;40.31;16.71;100510.53;30600006;28;97687;-66
2022/10/31 14:16:05;;;;;;;9.70;4.77;;;;;;;37.32;19.58;100519.63;30612676;28;97292;-66
2022/10/31 14:31:41;;;;;;;14.60;4.57;;;;;;;36.40;20.75;100508.34;30612851;28;96843;-66
2022/10/31 14:47:18;;;;;;;10.43;4.37;;;;;;;32.50;24.35;100508.81;30616788;28;97053;-67
2022/10/31 15:02:26;;;;;;;13.40;5.07;;;;;;;28.83;28.76;100500.63;30607574;28;98174;-67
2022/10/31 15:17:27;;;;;;;19.73;6.97;;;;;;;24.59;34.54;100513.59;30610457;28;97449;-67
2022/10/31 15:32:28;;;;;;;16.70;6.47;;;;;;;21.91;39.47;100511.88;30611897;28;97091;-67
2022/10/31 15:47:31;;;;;;;18.07;9.23;;;;;;;20.16;43.26;100508.25;30612696;28;96907;-67
2022/10/31 16:02:32;;;;;;;30.33;13.13;;;;;;;18.89;46.60;100520.97;30609710;28;96791;-69
2022/10/31 16:17:32;;;;;;;23.17;10.25;;;;;;;17.91;49.43;100521.94;30601035;28;96761;-68
2022/10/31 16:32:53;;;;;;;23.48;10.13;;;;;;;17.08;52.09;100521.34;30600820;28;97179;-68
2022/10/31 16:47:53;;;;;;;28.70;11.20;;;;;;;16.47;53.77;100522.22;30598420;28;96921;-68
2022/10/31 17:02:56;;;;;;;50.13;22.95;;;;;;;15.93;55.70;100521.09;30595309;28;96810;-69
2022/10/31 17:17:57;;;;;;;31.40;12.13;;;;;;;15.27;57.66;100524.94;30591723;28;97260;-69
2022/10/31 17:32:57;;;;;;;39.50;19.30;;;;;;;14.80;59.04;100529.81;30603122;28;98050;-70
2022/10/31 17:47:58;;;;;;;51.55;26.50;;;;;;;14.38;60.54;100523.34;30618781;28;96762;-69
2022/10/31 18:02:58;;;;;;;53.53;27.05;;;;;;;14.05;61.74;100518.34;30620130;28;98050;-69
2022/10/31 18:17:58;;;;;;;56.47;26.63;;;;;;;13.79;63.00;100516.13;30611527;28;113629;-70
2022/10/31 18:32:59;;;;;;;60.78;29.05;;;;;;;13.47;63.61;100507.44;30611344;28;96700;-70
2022/10/31 18:47:59;;;;;;;49.70;25.77;;;;;;;13.21;64.74;100514.78;30611178;28;112541;-70
2022/10/31 19:03:00;;;;;;;67.68;36.35;;;;;;;13.10;65.38;100501.84;30609395;28;97528;-72
2022/10/31 19:18:00;;;;;;;73.15;37.30;;;;;;;12.85;66.51;100488.66;30609057;28;96884;-69
2022/10/31 19:33:01;;;;;;;44.15;25.95;;;;;;;12.55;66.62;100471.66;30609296;28;98027;-68
2022/10/31 19:48:01;;;;;;;55.53;31.48;;;;;;;12.36;67.76;100488.94;30605503;28;102504;-66
2022/10/31 20:03:01;;;;;;;43.25;24.95;;;;;;;12.15;68.38;100477.03;30605233;28;97205;-66
2022/10/31 20:18:02;;;;;;;65.03;36.38;;;;;;;12.00;70.01;100470.72;30604339;28;107989;-66
2022/10/31 20:33:02;;;;;;;56.33;32.88;;;;;;;11.68;70.48;100465.28;30604229;28;97335;-65
2022/10/31 20:48:02;;;;;;;47.83;29.42;;;;;;;11.51;71.20;100453.00;30601120;28;97192;-65
2022/10/31 21:03:03;;;;;;;46.33;28.88;;;;;;;11.49;72.05;100439.81;30601241;28;96847;-65
2022/10/31 21:18:03;;;;;;;44.05;26.65;;;;;;;11.45;72.85;100432.34;30616415;28;112297;-66
2022/10/31 21:33:03;;;;;;;44.25;26.50;;;;;;;11.35;73.02;100435.19;30621088;28;96744;-66
2022/10/31 21:48:04;;;;;;;42.53;25.48;;;;;;;11.18;73.24;100411.22;30619770;28;97333;-68
2022/10/31 22:03:05;;;;;;;40.87;24.60;;;;;;;10.99;73.42;100404.41;30611603;28;97366;-69
2022/10/31 22:18:05;;;;;;;42.65;25.50;;;;;;;10.93;74.38;100393.56;30614544;28;113157;-70
2022/10/31 22:33:05;;;;;;;42.05;24.55;;;;;;;10.66;74.59;100371.59;30621202;28;114122;-69
2022/10/31 22:48:06;;;;;;;39.63;23.02;;;;;;;10.56;74.75;100366.41;30622387;28;97129;-68
2022/10/31 23:03:06;;;;;;;33.45;22.05;;;;;;;10.53;75.11;100356.09;30621423;28;97629;-68
2022/10/31 23:18:06;;;;;;;32.55;22.90;;;;;;;10.44;75.63;100344.63;30620215;28;106884;-71
2022/10/31 23:33:07;;;;;;;33.15;21.88;;;;;;;10.41;76.02;100323.63;30618524;28;96815;-67
2022/10/31 23:48:07;;;;;;;33.42;21.80;;;;;;;10.23;75.71;100321.09;30617232;28;116144;-71
